sensor_id;sensor_type;location;lat;lon;timestamp;pressure;altitude;pressure_sealevel;temperature;humidity
64115;BME280;62188;35.640;139.748;2023-04-08T00:01:21;100266.67;;;24.78;27.88
64115;BME280;62188;35.640;139.748;2023-04-08T00:03:46;100267.15;;;24.69;28.01
64115;BME280;62188;35.640;139.748;2023-04-08T00:06:12;100262.77;;;25.07;27.02
64115;BME280;62188;35.640;139.748;2023-04-08T00:08:37;100262.06;;;24.92;26.66
64115;BME280;62188;35.640;139.748;2023-04-08T00:11:03;100261.07;;;24.79;26.57
64115;BME280;62188;35.640;139.748;2023-04-08T00:13:28;100254.29;;;25.35;26.40
64115;BME280;62188;35.640;139.748;2023-04-08T00:15:53;100245.33;;;25.32;26.33
64115;BME280;62188;35.640;139.748;2023-04-08T00:18:19;100234.38;;;25.40;26.33
64115;BME280;62188;35.640;139.748;2023-04-08T00:20:45;100230.85;;;25.09;26.36
64115;BME280;62188;35.640;139.748;2023-04-08T00:23:09;100231.41;;;25.32;26.37
64115;BME280;62188;35.640;139.748;2023-04-08T00:25:35;100230.15;;;25.48;26.80
64115;BME280;62188;35.640;139.748;2023-04-08T00:28:01;100230.77;;;25.17;26.73
64115;BME280;62188;35.640;139.748;2023-04-08T00:30:26;100226.94;;;25.18;26.68
64115;BME280;62188;35.640;139.748;2023-04-08T00:32:51;100224.95;;;25.57;26.67
64115;BME280;62188;35.640;139.748;2023-04-08T00:35:17;100218.01;;;25.61;26.51
64115;BME280;62188;35.640;139.748;2023-04-08T00:37:42;100221.78;;;25.60;26.61
64115;BME280;62188;35.640;139.748;2023-04-08T00:40:09;100214.39;;;25.89;26.62
64115;BME280;62188;35.640;139.748;2023-04-08T00:42:33;100206.50;;;25.72;26.71
64115;BME280;62188;35.640;139.748;2023-04-08T00:44:58;100205.87;;;25.89;26.88
64115;BME280;62188;35.640;139.748;2023-04-08T00:47:24;100207.32;;;25.81;26.98
64115;BME280;62188;35.640;139.748;2023-04-08T00:49:49;100206.17;;;25.70;26.96
64115;BME280;62188;35.640;139.748;2023-04-08T00:52:15;100203.02;;;25.91;27.08
64115;BME280;62188;35.640;139.748;2023-04-08T00:54:42;100201.43;;;26.05;27.19
64115;BME280;62188;35.640;139.748;2023-04-08T00:57:05;100207.83;;;26.22;27.09
64115;BME280;62188;35.640;139.748;2023-04-08T00:59:31;100210.07;;;26.02;26.87
64115;BME280;62188;35.640;139.748;2023-04-08T01:02:02;100199.82;;;25.91;27.07
64115;BME280;62188;35.640;139.748;2023-04-08T01:04:27;100198.67;;;25.47;27.18
64115;BME280;62188;35.640;139.748;2023-04-08T01:06:52;100197.90;;;26.21;27.44
64115;BME280;62188;35.640;139.748;2023-04-08T01:09:12;100200.33;;;25.68;27.20
64115;BME280;62188;35.640;139.748;2023-04-08T01:11:40;100196.43;;;25.77;27.53
64115;BME280;62188;35.640;139.748;2023-04-08T01:14:05;100187.14;;;26.07;27.37
64115;BME280;62188;35.640;139.748;2023-04-08T01:16:29;100186.02;;;25.91;27.17
64115;BME280;62188;35.640;139.748;2023-04-08T01:18:55;100184.67;;;25.74;26.75
64115;BME280;62188;35.640;139.748;2023-04-08T01:21:21;100176.97;;;26.34;27.10
64115;BME280;62188;35.640;139.748;2023-04-08T01:23:53;100179.46;;;26.12;26.90
64115;BME280;62188;35.640;139.748;2023-04-08T01:26:12;100180.94;;;25.77;26.70
64115;BME280;62188;35.640;139.748;2023-04-08T01:28:36;100177.15;;;25.58;27.22
64115;BME280;62188;35.640;139.748;2023-04-08T01:31:01;100176.08;;;25.03;28.21
64115;BME280;62188;35.640;139.748;2023-04-08T01:33:27;100172.09;;;25.19;28.51
64115;BME280;62188;35.640;139.748;2023-04-08T01:35:52;100164.40;;;24.81;28.53
64115;BME280;62188;35.640;139.748;2023-04-08T01:38:18;100166.06;;;24.82;28.44
64115;BME280;62188;35.640;139.748;2023-04-08T01:40:43;100164.90;;;25.21;28.40
64115;BME280;62188;35.640;139.748;2023-04-08T01:43:09;100164.43;;;24.73;28.87
64115;BME280;62188;35.640;139.748;2023-04-08T01:45:34;100166.99;;;24.41;29.37
64115;BME280;62188;35.640;139.748;2023-04-08T01:48:00;100168.23;;;24.21;29.81
64115;BME280;62188;35.640;139.748;2023-04-08T01:50:25;100163.72;;;24.27;30.49
64115;BME280;62188;35.640;139.748;2023-04-08T01:52:50;100163.16;;;23.85;31.72
64115;BME280;62188;35.640;139.748;2023-04-08T01:55:15;100166.37;;;23.57;32.48
64115;BME280;62188;35.640;139.748;2023-04-08T01:57:43;100163.45;;;23.61;33.05
64115;BME280;62188;35.640;139.748;2023-04-08T02:00:09;100169.96;;;23.40;33.31
64115;BME280;62188;35.640;139.748;2023-04-08T02:02:32;100168.46;;;23.57;33.55
64115;BME280;62188;35.640;139.748;2023-04-08T02:04:58;100166.14;;;23.34;33.72
64115;BME280;62188;35.640;139.748;2023-04-08T02:07:22;100164.72;;;23.29;33.93
64115;BME280;62188;35.640;139.748;2023-04-08T02:09:48;100164.46;;;23.17;34.37
64115;BME280;62188;35.640;139.748;2023-04-08T02:12:13;100161.93;;;23.15;34.54
64115;BME280;62188;35.640;139.748;2023-04-08T02:14:39;100162.06;;;23.19;34.69
64115;BME280;62188;35.640;139.748;2023-04-08T02:17:09;100159.84;;;23.73;34.96
64115;BME280;62188;35.640;139.748;2023-04-08T02:19:34;100159.30;;;23.40;35.28
64115;BME280;62188;35.640;139.748;2023-04-08T02:22:01;100157.17;;;22.91;35.57
64115;BME280;62188;35.640;139.748;2023-04-08T02:24:21;100147.06;;;22.77;35.89
64115;BME280;62188;35.640;139.748;2023-04-08T02:26:48;100155.39;;;22.52;36.36
64115;BME280;62188;35.640;139.748;2023-04-08T02:29:14;100142.15;;;22.65;36.67
64115;BME280;62188;35.640;139.748;2023-04-08T02:31:40;100136.87;;;22.75;36.88
64115;BME280;62188;35.640;139.748;2023-04-08T02:34:03;100140.53;;;22.52;36.87
64115;BME280;62188;35.640;139.748;2023-04-08T02:36:28;100149.59;;;22.35;36.93
64115;BME280;62188;35.640;139.748;2023-04-08T02:38:53;100143.91;;;22.51;36.99
64115;BME280;62188;35.640;139.748;2023-04-08T02:41:19;100147.46;;;22.03;37.27
64115;BME280;62188;35.640;139.748;2023-04-08T02:43:44;100151.58;;;21.94;37.53
64115;BME280;62188;35.640;139.748;2023-04-08T02:46:11;100150.02;;;22.08;37.88
64115;BME280;62188;35.640;139.748;2023-04-08T02:48:36;100146.44;;;21.95;38.12
64115;BME280;62188;35.640;139.748;2023-04-08T02:51:01;100161.49;;;21.64;38.32
64115;BME280;62188;35.640;139.748;2023-04-08T02:53:26;100163.26;;;21.41;38.21
64115;BME280;62188;35.640;139.748;2023-04-08T02:55:51;100166.45;;;21.67;38.27
64115;BME280;62188;35.640;139.748;2023-04-08T02:58:17;100168.00;;;21.99;38.15
64115;BME280;62188;35.640;139.748;2023-04-08T03:00:43;100166.78;;;21.60;38.11
64115;BME280;62188;35.640;139.748;2023-04-08T03:03:08;100164.31;;;21.38;38.37
64115;BME280;62188;35.640;139.748;2023-04-08T03:05:34;100162.23;;;21.54;38.31
64115;BME280;62188;35.640;139.748;2023-04-08T03:08:00;100165.65;;;21.35;38.61
64115;BME280;62188;35.640;139.748;2023-04-08T03:10:25;100166.12;;;21.38;38.85
64115;BME280;62188;35.640;139.748;2023-04-08T03:12:51;100165.99;;;21.65;39.00
64115;BME280;62188;35.640;139.748;2023-04-08T03:15:17;100165.35;;;21.42;39.56
64115;BME280;62188;35.640;139.748;2023-04-08T03:17:42;100172.34;;;21.64;39.81
64115;BME280;62188;35.640;139.748;2023-04-08T03:20:08;100168.59;;;21.47;40.10
64115;BME280;62188;35.640;139.748;2023-04-08T03:22:34;100162.19;;;21.42;39.83
64115;BME280;62188;35.640;139.748;2023-04-08T03:24:58;100166.97;;;21.29;40.07
64115;BME280;62188;35.640;139.748;2023-04-08T03:27:24;100169.02;;;21.22;40.22
64115;BME280;62188;35.640;139.748;2023-04-08T03:29:49;100165.18;;;21.20;40.55
64115;BME280;62188;35.640;139.748;2023-04-08T03:32:15;100164.62;;;21.16;40.42
64115;BME280;62188;35.640;139.748;2023-04-08T03:34:40;100155.18;;;21.02;40.70
64115;BME280;62188;35.640;139.748;2023-04-08T03:37:06;100150.82;;;21.17;40.41
64115;BME280;62188;35.640;139.748;2023-04-08T03:39:32;100148.27;;;21.18;40.33
64115;BME280;62188;35.640;139.748;2023-04-08T03:41:57;100147.57;;;21.16;40.11
64115;BME280;62188;35.640;139.748;2023-04-08T03:44:22;100142.02;;;21.06;40.20
64115;BME280;62188;35.640;139.748;2023-04-08T03:46:48;100142.75;;;20.91;40.24
64115;BME280;62188;35.640;139.748;2023-04-08T03:49:13;100133.10;;;21.26;40.43
64115;BME280;62188;35.640;139.748;2023-04-08T03:51:38;100144.32;;;20.95;40.59
64115;BME280;62188;35.640;139.748;2023-04-08T03:54:04;100141.36;;;20.66;40.56
64115;BME280;62188;35.640;139.748;2023-04-08T03:56:29;100149.28;;;20.53;41.00
64115;BME280;62188;35.640;139.748;2023-04-08T03:58:55;100151.61;;;20.95;41.14
64115;BME280;62188;35.640;139.748;2023-04-08T04:01:20;100147.84;;;20.56;41.16
64115;BME280;62188;35.640;139.748;2023-04-08T04:03:45;100146.24;;;20.57;40.95
64115;BME280;62188;35.640;139.748;2023-04-08T04:06:11;100140.70;;;20.98;41.10
64115;BME280;62188;35.640;139.748;2023-04-08T04:08:37;100139.06;;;20.79;41.29
64115;BME280;62188;35.640;139.748;2023-04-08T04:11:02;100140.50;;;21.05;41.05
64115;BME280;62188;35.640;139.748;2023-04-08T04:13:27;100142.88;;;20.87;40.72
64115;BME280;62188;35.640;139.748;2023-04-08T04:15:54;100138.52;;;21.05;40.50
64115;BME280;62188;35.640;139.748;2023-04-08T04:18:19;100142.66;;;20.92;40.36
64115;BME280;62188;35.640;139.748;2023-04-08T04:20:44;100141.34;;;20.91;40.50
64115;BME280;62188;35.640;139.748;2023-04-08T04:23:10;100134.23;;;20.84;40.60
64115;BME280;62188;35.640;139.748;2023-04-08T04:25:35;100135.92;;;20.25;40.67
64115;BME280;62188;35.640;139.748;2023-04-08T04:28:01;100131.77;;;20.37;40.84
64115;BME280;62188;35.640;139.748;2023-04-08T04:30:26;100128.28;;;20.40;40.83
64115;BME280;62188;35.640;139.748;2023-04-08T04:32:51;100126.45;;;20.38;40.55
64115;BME280;62188;35.640;139.748;2023-04-08T04:35:17;100122.79;;;20.26;40.33
64115;BME280;62188;35.640;139.748;2023-04-08T04:37:42;100118.93;;;20.35;40.08
64115;BME280;62188;35.640;139.748;2023-04-08T04:40:09;100115.47;;;20.57;40.00
64115;BME280;62188;35.640;139.748;2023-04-08T04:42:33;100118.86;;;20.50;40.22
64115;BME280;62188;35.640;139.748;2023-04-08T04:44:59;100116.63;;;20.75;40.41
64115;BME280;62188;35.640;139.748;2023-04-08T04:47:25;100108.66;;;20.33;40.32
64115;BME280;62188;35.640;139.748;2023-04-08T04:49:50;100108.35;;;20.43;40.51
64115;BME280;62188;35.640;139.748;2023-04-08T04:52:16;100098.78;;;20.40;40.33
64115;BME280;62188;35.640;139.748;2023-04-08T04:54:41;100097.46;;;20.49;40.08
64115;BME280;62188;35.640;139.748;2023-04-08T04:57:07;100100.33;;;20.58;40.11
64115;BME280;62188;35.640;139.748;2023-04-08T04:59:32;100094.18;;;20.70;40.00
64115;BME280;62188;35.640;139.748;2023-04-08T05:01:57;100090.19;;;20.85;39.82
64115;BME280;62188;35.640;139.748;2023-04-08T05:04:22;100095.11;;;20.98;39.64
64115;BME280;62188;35.640;139.748;2023-04-08T05:06:48;100099.00;;;20.99;39.53
64115;BME280;62188;35.640;139.748;2023-04-08T05:09:14;100100.28;;;21.03;39.62
64115;BME280;62188;35.640;139.748;2023-04-08T05:11:39;100105.88;;;20.87;39.25
64115;BME280;62188;35.640;139.748;2023-04-08T05:14:03;100111.54;;;20.49;39.18
64115;BME280;62188;35.640;139.748;2023-04-08T05:16:29;100108.83;;;20.76;39.33
64115;BME280;62188;35.640;139.748;2023-04-08T05:18:55;100111.24;;;21.11;38.83
64115;BME280;62188;35.640;139.748;2023-04-08T05:21:21;100112.93;;;20.83;39.22
64115;BME280;62188;35.640;139.748;2023-04-08T05:23:45;100111.97;;;21.04;39.34
64115;BME280;62188;35.640;139.748;2023-04-08T05:26:11;100126.75;;;20.72;38.58
64115;BME280;62188;35.640;139.748;2023-04-08T05:28:37;100119.86;;;20.35;39.05
64115;BME280;62188;35.640;139.748;2023-04-08T05:31:02;100102.18;;;20.76;39.46
64115;BME280;62188;35.640;139.748;2023-04-08T05:33:27;100085.48;;;20.47;39.52
64115;BME280;62188;35.640;139.748;2023-04-08T05:35:53;100100.84;;;20.28;38.88
64115;BME280;62188;35.640;139.748;2023-04-08T05:38:19;100116.81;;;20.34;39.16
64115;BME280;62188;35.640;139.748;2023-04-08T05:40:43;100103.55;;;20.56;39.21
64115;BME280;62188;35.640;139.748;2023-04-08T05:43:09;100112.20;;;20.14;39.51
64115;BME280;62188;35.640;139.748;2023-04-08T05:45:34;100109.53;;;20.02;39.63
64115;BME280;62188;35.640;139.748;2023-04-08T05:48:00;100096.24;;;20.33;39.73
64115;BME280;62188;35.640;139.748;2023-04-08T05:50:25;100090.65;;;20.01;40.05
64115;BME280;62188;35.640;139.748;2023-04-08T05:52:51;100102.76;;;19.90;40.04
64115;BME280;62188;35.640;139.748;2023-04-08T05:55:16;100110.71;;;19.90;40.07
64115;BME280;62188;35.640;139.748;2023-04-08T05:57:41;100108.79;;;19.90;40.34
64115;BME280;62188;35.640;139.748;2023-04-08T06:00:09;100099.69;;;19.95;40.59
64115;BME280;62188;35.640;139.748;2023-04-08T06:02:33;100102.51;;;20.00;40.23
64115;BME280;62188;35.640;139.748;2023-04-08T06:04:58;100095.28;;;20.00;40.00
64115;BME280;62188;35.640;139.748;2023-04-08T06:07:24;100089.40;;;19.95;39.98
64115;BME280;62188;35.640;139.748;2023-04-08T06:09:49;100092.82;;;19.89;39.89
64115;BME280;62188;35.640;139.748;2023-04-08T06:12:14;100111.77;;;20.01;40.07
64115;BME280;62188;35.640;139.748;2023-04-08T06:14:40;100119.65;;;19.61;40.32
64115;BME280;62188;35.640;139.748;2023-04-08T06:17:06;100129.51;;;19.56;40.63
64115;BME280;62188;35.640;139.748;2023-04-08T06:19:31;100117.63;;;19.62;40.97
64115;BME280;62188;35.640;139.748;2023-04-08T06:21:57;100127.16;;;19.74;40.36
64115;BME280;62188;35.640;139.748;2023-04-08T06:24:22;100138.09;;;19.58;40.49
64115;BME280;62188;35.640;139.748;2023-04-08T06:26:48;100121.28;;;19.55;40.86
64115;BME280;62188;35.640;139.748;2023-04-08T06:29:13;100111.53;;;19.39;40.63
64115;BME280;62188;35.640;139.748;2023-04-08T06:31:39;100112.03;;;19.45;40.60
64115;BME280;62188;35.640;139.748;2023-04-08T06:34:04;100114.20;;;19.31;40.26
64115;BME280;62188;35.640;139.748;2023-04-08T06:36:29;100111.11;;;19.30;40.34
64115;BME280;62188;35.640;139.748;2023-04-08T06:38:55;100123.12;;;19.01;40.20
64115;BME280;62188;35.640;139.748;2023-04-08T06:41:20;100137.57;;;19.11;40.15
64115;BME280;62188;35.640;139.748;2023-04-08T06:43:46;100138.23;;;19.01;40.49
64115;BME280;62188;35.640;139.748;2023-04-08T06:46:11;100144.33;;;18.97;40.61
64115;BME280;62188;35.640;139.748;2023-04-08T06:48:37;100137.35;;;18.99;40.76
64115;BME280;62188;35.640;139.748;2023-04-08T06:51:02;100136.09;;;18.66;40.76
64115;BME280;62188;35.640;139.748;2023-04-08T06:53:28;100150.39;;;18.66;40.86
64115;BME280;62188;35.640;139.748;2023-04-08T06:55:52;100144.54;;;18.77;40.70
64115;BME280;62188;35.640;139.748;2023-04-08T06:58:17;100133.93;;;19.19;40.40
64115;BME280;62188;35.640;139.748;2023-04-08T07:00:43;100149.78;;;19.16;39.95
64115;BME280;62188;35.640;139.748;2023-04-08T07:03:08;100147.94;;;19.04;39.58
64115;BME280;62188;35.640;139.748;2023-04-08T07:05:36;100138.33;;;19.22;39.45
64115;BME280;62188;35.640;139.748;2023-04-08T07:08:00;100140.23;;;19.39;39.15
64115;BME280;62188;35.640;139.748;2023-04-08T07:10:25;100136.11;;;19.53;39.16
64115;BME280;62188;35.640;139.748;2023-04-08T07:12:51;100141.46;;;19.58;38.62
64115;BME280;62188;35.640;139.748;2023-04-08T07:15:16;100138.33;;;19.34;37.98
64115;BME280;62188;35.640;139.748;2023-04-08T07:17:41;100150.07;;;19.45;38.02
64115;BME280;62188;35.640;139.748;2023-04-08T07:20:08;100153.45;;;19.85;37.85
64115;BME280;62188;35.640;139.748;2023-04-08T07:22:32;100155.55;;;19.55;38.09
64115;BME280;62188;35.640;139.748;2023-04-08T07:24:58;100164.86;;;19.57;38.01
64115;BME280;62188;35.640;139.748;2023-04-08T07:27:23;100184.48;;;19.45;38.13
64115;BME280;62188;35.640;139.748;2023-04-08T07:29:53;100189.55;;;19.69;38.15
64115;BME280;62188;35.640;139.748;2023-04-08T07:32:14;100183.79;;;19.59;37.89
64115;BME280;62188;35.640;139.748;2023-04-08T07:34:40;100181.98;;;19.90;38.05
64115;BME280;62188;35.640;139.748;2023-04-08T07:37:05;100182.93;;;19.73;38.10
64115;BME280;62188;35.640;139.748;2023-04-08T07:39:31;100193.74;;;19.71;37.93
64115;BME280;62188;35.640;139.748;2023-04-08T07:41:56;100202.34;;;19.47;38.66
64115;BME280;62188;35.640;139.748;2023-04-08T07:44:22;100210.23;;;19.90;38.67
64115;BME280;62188;35.640;139.748;2023-04-08T07:46:47;100214.81;;;19.53;38.59
64115;BME280;62188;35.640;139.748;2023-04-08T07:49:13;100216.24;;;19.27;38.40
64115;BME280;62188;35.640;139.748;2023-04-08T07:51:38;100226.43;;;19.40;38.30
64115;BME280;62188;35.640;139.748;2023-04-08T07:54:04;100241.25;;;19.67;38.83
64115;BME280;62188;35.640;139.748;2023-04-08T07:56:29;100227.09;;;19.40;38.73
64115;BME280;62188;35.640;139.748;2023-04-08T07:58:54;100224.78;;;18.88;38.20
64115;BME280;62188;35.640;139.748;2023-04-08T08:01:21;100232.58;;;19.04;38.74
64115;BME280;62188;35.640;139.748;2023-04-08T08:03:45;100235.59;;;18.87;39.75
64115;BME280;62188;35.640;139.748;2023-04-08T08:06:12;100240.15;;;19.13;39.73
64115;BME280;62188;35.640;139.748;2023-04-08T08:08:36;100243.47;;;19.12;39.94
64115;BME280;62188;35.640;139.748;2023-04-08T08:11:01;100259.65;;;19.15;38.80
64115;BME280;62188;35.640;139.748;2023-04-08T08:13:27;100256.99;;;19.19;38.54
64115;BME280;62188;35.640;139.748;2023-04-08T08:15:53;100272.55;;;18.96;38.47
64115;BME280;62188;35.640;139.748;2023-04-08T08:18:18;100258.52;;;18.99;37.53
64115;BME280;62188;35.640;139.748;2023-04-08T08:20:43;100263.36;;;18.95;37.69
64115;BME280;62188;35.640;139.748;2023-04-08T08:23:08;100260.52;;;19.29;38.55
64115;BME280;62188;35.640;139.748;2023-04-08T08:25:34;100258.79;;;19.03;38.50
64115;BME280;62188;35.640;139.748;2023-04-08T08:28:00;100295.84;;;19.01;38.89
64115;BME280;62188;35.640;139.748;2023-04-08T08:30:25;100264.38;;;18.61;36.79
64115;BME280;62188;35.640;139.748;2023-04-08T08:32:51;100288.42;;;18.41;36.03
64115;BME280;62188;35.640;139.748;2023-04-08T08:35:17;100258.10;;;18.42;35.22
64115;BME280;62188;35.640;139.748;2023-04-08T08:37:42;100261.87;;;18.12;34.33
64115;BME280;62188;35.640;139.748;2023-04-08T08:40:09;100274.96;;;18.16;34.52
64115;BME280;62188;35.640;139.748;2023-04-08T08:42:33;100263.46;;;18.49;34.74
64115;BME280;62188;35.640;139.748;2023-04-08T08:45:02;100282.10;;;18.23;34.86
64115;BME280;62188;35.640;139.748;2023-04-08T08:47:25;100287.41;;;18.26;35.19
64115;BME280;62188;35.640;139.748;2023-04-08T08:49:49;100260.52;;;18.25;34.29
64115;BME280;62188;35.640;139.748;2023-04-08T08:52:16;100247.99;;;17.88;34.22
64115;BME280;62188;35.640;139.748;2023-04-08T08:54:41;100280.09;;;17.56;35.41
64115;BME280;62188;35.640;139.748;2023-04-08T08:59:31;100273.24;;;17.41;33.81
64115;BME280;62188;35.640;139.748;2023-04-08T09:01:57;100263.71;;;17.46;31.54
64115;BME280;62188;35.640;139.748;2023-04-08T09:04:23;100262.04;;;17.65;30.02
64115;BME280;62188;35.640;139.748;2023-04-08T09:07:05;100263.18;;;17.52;30.71
64115;BME280;62188;35.640;139.748;2023-04-08T09:09:14;100277.10;;;17.61;28.92
64115;BME280;62188;35.640;139.748;2023-04-08T09:11:41;100305.67;;;17.73;29.11
64115;BME280;62188;35.640;139.748;2023-04-08T09:14:05;100339.60;;;17.49;27.43
64115;BME280;62188;35.640;139.748;2023-04-08T09:16:31;100340.20;;;17.76;27.04
64115;BME280;62188;35.640;139.748;2023-04-08T09:19:07;100354.11;;;17.56;26.07
64115;BME280;62188;35.640;139.748;2023-04-08T09:21:23;100372.82;;;17.48;24.97
64115;BME280;62188;35.640;139.748;2023-04-08T09:23:49;100375.42;;;17.49;25.81
64115;BME280;62188;35.640;139.748;2023-04-08T09:26:16;100380.82;;;17.54;25.48
64115;BME280;62188;35.640;139.748;2023-04-08T09:28:39;100388.79;;;17.51;26.24
64115;BME280;62188;35.640;139.748;2023-04-08T09:33:33;100399.21;;;17.46;25.94
64115;BME280;62188;35.640;139.748;2023-04-08T09:35:55;100400.47;;;17.79;25.56
64115;BME280;62188;35.640;139.748;2023-04-08T09:38:21;100383.04;;;17.92;26.31
64115;BME280;62188;35.640;139.748;2023-04-08T09:40:46;100413.98;;;17.83;25.47
64115;BME280;62188;35.640;139.748;2023-04-08T09:43:14;100413.35;;;16.92;25.58
64115;BME280;62188;35.640;139.748;2023-04-08T09:45:39;100415.69;;;16.85;26.04
64115;BME280;62188;35.640;139.748;2023-04-08T09:48:09;100433.52;;;16.71;26.41
64115;BME280;62188;35.640;139.748;2023-04-08T09:50:31;100443.60;;;16.72;26.88
64115;BME280;62188;35.640;139.748;2023-04-08T09:53:00;100418.83;;;16.65;24.86
64115;BME280;62188;35.640;139.748;2023-04-08T09:55:22;100449.92;;;16.67;25.40
64115;BME280;62188;35.640;139.748;2023-04-08T09:57:51;100459.14;;;16.75;25.55
64115;BME280;62188;35.640;139.748;2023-04-08T10:00:11;100471.01;;;16.52;24.42
64115;BME280;62188;35.640;139.748;2023-04-08T10:02:43;100475.82;;;16.59;24.99
64115;BME280;62188;35.640;139.748;2023-04-08T10:05:04;100474.57;;;16.81;24.96
64115;BME280;62188;35.640;139.748;2023-04-08T10:07:27;100477.75;;;16.93;25.43
64115;BME280;62188;35.640;139.748;2023-04-08T10:09:53;100472.96;;;17.05;24.37
64115;BME280;62188;35.640;139.748;2023-04-08T10:12:19;100473.76;;;16.73;24.38
64115;BME280;62188;35.640;139.748;2023-04-08T10:17:23;100473.04;;;16.97;22.48
64115;BME280;62188;35.640;139.748;2023-04-08T10:19:39;100469.59;;;16.71;22.27
64115;BME280;62188;35.640;139.748;2023-04-08T10:22:01;100478.36;;;16.55;22.23
64115;BME280;62188;35.640;139.748;2023-04-08T10:24:26;100475.30;;;16.92;22.80
64115;BME280;62188;35.640;139.748;2023-04-08T10:26:52;100473.67;;;16.89;22.68
64115;BME280;62188;35.640;139.748;2023-04-08T10:29:30;100490.40;;;16.83;22.06
64115;BME280;62188;35.640;139.748;2023-04-08T10:31:44;100506.07;;;16.82;21.25
64115;BME280;62188;35.640;139.748;2023-04-08T10:34:15;100496.13;;;16.70;21.40
64115;BME280;62188;35.640;139.748;2023-04-08T10:36:35;100508.79;;;16.76;21.71
64115;BME280;62188;35.640;139.748;2023-04-08T10:39:01;100511.63;;;16.72;21.11
64115;BME280;62188;35.640;139.748;2023-04-08T10:41:26;100540.51;;;16.79;21.06
64115;BME280;62188;35.640;139.748;2023-04-08T10:43:51;100541.66;;;16.86;20.77
64115;BME280;62188;35.640;139.748;2023-04-08T10:46:17;100514.26;;;16.36;19.95
64115;BME280;62188;35.640;139.748;2023-04-08T10:48:43;100543.59;;;16.34;20.61
64115;BME280;62188;35.640;139.748;2023-04-08T10:51:08;100546.93;;;16.08;20.84
64115;BME280;62188;35.640;139.748;2023-04-08T10:53:35;100549.30;;;16.38;21.62
64115;BME280;62188;35.640;139.748;2023-04-08T10:56:05;100546.00;;;16.40;20.73
64115;BME280;62188;35.640;139.748;2023-04-08T10:58:26;100573.60;;;16.26;20.71
64115;BME280;62188;35.640;139.748;2023-04-08T11:00:50;100578.29;;;16.17;20.43
64115;BME280;62188;35.640;139.748;2023-04-08T11:03:16;100575.32;;;16.11;20.34
64115;BME280;62188;35.640;139.748;2023-04-08T11:05:42;100593.53;;;16.31;20.81
64115;BME280;62188;35.640;139.748;2023-04-08T11:08:07;100594.73;;;16.55;20.90
64115;BME280;62188;35.640;139.748;2023-04-08T11:10:37;100595.55;;;16.62;20.65
64115;BME280;62188;35.640;139.748;2023-04-08T11:12:58;100611.55;;;16.41;20.74
64115;BME280;62188;35.640;139.748;2023-04-08T11:15:26;100604.76;;;16.32;20.24
64115;BME280;62188;35.640;139.748;2023-04-08T11:17:49;100616.44;;;16.79;20.54
64115;BME280;62188;35.640;139.748;2023-04-08T11:20:16;100609.18;;;16.70;20.31
64115;BME280;62188;35.640;139.748;2023-04-08T11:22:41;100606.36;;;16.33;19.34
64115;BME280;62188;35.640;139.748;2023-04-08T11:25:08;100615.06;;;16.46;20.45
64115;BME280;62188;35.640;139.748;2023-04-08T11:27:32;100616.07;;;16.65;20.03
64115;BME280;62188;35.640;139.748;2023-04-08T11:29:58;100618.69;;;16.76;20.15
64115;BME280;62188;35.640;139.748;2023-04-08T11:32:23;100621.56;;;16.79;20.01
64115;BME280;62188;35.640;139.748;2023-04-08T11:34:50;100625.92;;;16.87;20.42
64115;BME280;62188;35.640;139.748;2023-04-08T11:37:15;100628.55;;;16.91;20.19
64115;BME280;62188;35.640;139.748;2023-04-08T11:39:43;100622.67;;;16.86;19.36
64115;BME280;62188;35.640;139.748;2023-04-08T11:42:06;100639.89;;;16.61;19.00
64115;BME280;62188;35.640;139.748;2023-04-08T11:44:32;100643.78;;;16.54;19.33
64115;BME280;62188;35.640;139.748;2023-04-08T11:46:57;100653.73;;;16.59;19.55
64115;BME280;62188;35.640;139.748;2023-04-08T11:49:22;100652.67;;;16.52;19.69
64115;BME280;62188;35.640;139.748;2023-04-08T11:51:57;100660.61;;;16.74;19.60
64115;BME280;62188;35.640;139.748;2023-04-08T11:56:44;100677.83;;;16.74;18.98
64115;BME280;62188;35.640;139.748;2023-04-08T11:59:05;100672.02;;;16.50;19.16
64115;BME280;62188;35.640;139.748;2023-04-08T12:01:32;100678.16;;;16.35;18.93
64115;BME280;62188;35.640;139.748;2023-04-08T12:03:57;100677.29;;;16.46;19.24
64115;BME280;62188;35.640;139.748;2023-04-08T12:06:22;100674.60;;;16.65;18.66
64115;BME280;62188;35.640;139.748;2023-04-08T12:08:47;100683.06;;;16.34;18.31
64115;BME280;62188;35.640;139.748;2023-04-08T12:11:13;100687.70;;;16.35;18.63
64115;BME280;62188;35.640;139.748;2023-04-08T12:13:39;100686.60;;;16.17;18.60
64115;BME280;62188;35.640;139.748;2023-04-08T12:16:05;100680.25;;;16.07;18.79
64115;BME280;62188;35.640;139.748;2023-04-08T12:18:32;100694.61;;;15.82;18.75
64115;BME280;62188;35.640;139.748;2023-04-08T12:20:55;100697.92;;;16.13;19.00
64115;BME280;62188;35.640;139.748;2023-04-08T12:23:26;100696.08;;;16.04;19.19
64115;BME280;62188;35.640;139.748;2023-04-08T12:25:46;100700.76;;;16.45;18.99
64115;BME280;62188;35.640;139.748;2023-04-08T12:28:12;100704.15;;;16.26;18.82
64115;BME280;62188;35.640;139.748;2023-04-08T12:30:38;100702.65;;;16.32;18.24